sensor_id;sensor_type;location;lat;lon;timestamp;noise_LAeq;noise_LA_min;noise_LA_max;noise_LA01;noise_LA95
58303;Laerm;44109;52.398;7.024;2023-05-25T00:01:09;44.74;33.41;57.69;;
58303;Laerm;44109;52.398;7.024;2023-05-25T00:03:38;45.47;33.52;73.49;;
58303;Laerm;44109;52.398;7.024;2023-05-25T00:06:06;44.89;33.49;60.91;;
58303;Laerm;44109;52.398;7.024;2023-05-25T00:08:35;44.89;33.10;61.08;;
58303;Laerm;44109;52.398;7.024;2023-05-25T00:11:03;44.92;33.18;61.41;;
58303;Laerm;44109;52.398;7.024;2023-05-25T00:13:30;44.77;33.21;57.28;;
58303;Laerm;44109;52.398;7.024;2023-05-25T00:15:58;46.03;32.72;76.34;;
58303;Laerm;44109;52.398;7.024;2023-05-25T00:18:26;45.14;33.39;71.53;;
58303;Laerm;44109;52.398;7.024;2023-05-25T00:20:55;46.00;32.49;75.14;;
58303;Laerm;44109;52.398;7.024;2023-05-25T00:23:22;45.14;33.46;62.49;;
58303;Laerm;44109;52.398;7.024;2023-05-25T00:25:50;44.81;33.56;62.26;;
58303;Laerm;44109;52.398;7.024;2023-05-25T00:28:17;45.02;33.32;71.30;;
58303;Laerm;44109;52.398;7.024;2023-05-25T00:30:45;45.46;33.64;73.91;;
58303;Laerm;44109;52.398;7.024;2023-05-25T00:33:13;44.69;33.49;61.83;;
58303;Laerm;44109;52.398;7.024;2023-05-25T00:35:41;45.20;33.57;67.12;;
58303;Laerm;44109;52.398;7.024;2023-05-25T00:38:13;45.15;33.43;72.38;;
58303;Laerm;44109;52.398;7.024;2023-05-25T00:40:41;44.61;33.51;61.90;;
58303;Laerm;44109;52.398;7.024;2023-05-25T00:43:10;46.34;33.55;77.68;;
58303;Laerm;44109;52.398;7.024;2023-05-25T00:45:38;44.49;33.54;65.57;;
58303;Laerm;44109;52.398;7.024;2023-05-25T00:48:07;44.45;33.40;57.70;;
58303;Laerm;44109;52.398;7.024;2023-05-25T00:50:38;44.35;33.19;58.71;;
58303;Laerm;44109;52.398;7.024;2023-05-25T00:53:09;44.36;33.56;57.14;;
58303;Laerm;44109;52.398;7.024;2023-05-25T00:55:44;44.12;33.22;58.20;;
58303;Laerm;44109;52.398;7.024;2023-05-25T00:58:16;45.07;33.70;72.81;;
58303;Laerm;44109;52.398;7.024;2023-05-25T01:00:49;44.32;33.68;64.37;;
58303;Laerm;44109;52.398;7.024;2023-05-25T01:03:21;44.35;33.71;64.55;;
58303;Laerm;44109;52.398;7.024;2023-05-25T01:05:54;44.28;33.31;60.11;;
58303;Laerm;44109;52.398;7.024;2023-05-25T01:08:24;46.15;33.63;77.87;;
58303;Laerm;44109;52.398;7.024;2023-05-25T01:10:57;45.95;33.54;77.22;;
58303;Laerm;44109;52.398;7.024;2023-05-25T01:13:27;44.16;33.64;65.32;;
58303;Laerm;44109;52.398;7.024;2023-05-25T01:15:57;44.22;33.41;57.16;;
58303;Laerm;44109;52.398;7.024;2023-05-25T01:18:24;45.65;33.09;69.57;;
58303;Laerm;44109;52.398;7.024;2023-05-25T01:21:03;44.05;33.07;57.86;;
58303;Laerm;44109;52.398;7.024;2023-05-25T01:24:01;43.46;33.01;57.44;;
58303;Laerm;44109;52.398;7.024;2023-05-25T01:26:37;45.22;33.72;74.97;;
58303;Laerm;44109;52.398;7.024;2023-05-25T01:29:07;44.42;33.25;67.45;;
58303;Laerm;44109;52.398;7.024;2023-05-25T01:31:38;44.33;33.45;57.28;;
58303;Laerm;44109;52.398;7.024;2023-05-25T01:34:08;44.46;33.65;61.65;;
58303;Laerm;44109;52.398;7.024;2023-05-25T01:36:38;44.79;33.74;70.37;;
58303;Laerm;44109;52.398;7.024;2023-05-25T01:39:07;45.02;33.54;71.43;;
58303;Laerm;44109;52.398;7.024;2023-05-25T01:41:36;44.38;33.52;57.33;;
58303;Laerm;44109;52.398;7.024;2023-05-25T01:44:04;44.51;33.65;57.33;;
58303;Laerm;44109;52.398;7.024;2023-05-25T01:46:37;45.68;33.55;75.76;;
58303;Laerm;44109;52.398;7.024;2023-05-25T01:49:20;44.78;33.81;64.21;;
58303;Laerm;44109;52.398;7.024;2023-05-25T01:52:03;44.54;33.64;65.25;;
58303;Laerm;44109;52.398;7.024;2023-05-25T01:54:37;45.57;34.07;71.94;;
58303;Laerm;44109;52.398;7.024;2023-05-25T01:57:11;45.02;33.82;61.69;;
58303;Laerm;44109;52.398;7.024;2023-05-25T01:59:42;45.95;33.69;72.50;;
58303;Laerm;44109;52.398;7.024;2023-05-25T02:02:12;45.29;33.49;63.08;;
58303;Laerm;44109;52.398;7.024;2023-05-25T02:04:41;46.86;33.68;76.33;;
58303;Laerm;44109;52.398;7.024;2023-05-25T02:07:10;45.64;33.73;57.49;;
58303;Laerm;44109;52.398;7.024;2023-05-25T02:09:38;46.58;33.47;75.86;;
58303;Laerm;44109;52.398;7.024;2023-05-25T02:12:06;45.66;33.96;57.34;;
58303;Laerm;44109;52.398;7.024;2023-05-25T02:14:34;45.82;33.63;63.20;;
58303;Laerm;44109;52.398;7.024;2023-05-25T02:17:02;45.83;34.06;57.99;;
58303;Laerm;44109;52.398;7.024;2023-05-25T02:19:30;46.77;33.87;72.80;;
58303;Laerm;44109;52.398;7.024;2023-05-25T02:21:57;48.73;34.12;68.55;;
58303;Laerm;44109;52.398;7.024;2023-05-25T02:24:26;52.82;34.14;71.69;;
58303;Laerm;44109;52.398;7.024;2023-05-25T02:26:54;53.54;34.71;68.83;;
58303;Laerm;44109;52.398;7.024;2023-05-25T02:29:22;55.53;34.78;73.63;;
58303;Laerm;44109;52.398;7.024;2023-05-25T02:31:49;56.23;35.26;69.56;;
58303;Laerm;44109;52.398;7.024;2023-05-25T02:34:17;56.19;36.01;70.46;;
58303;Laerm;44109;52.398;7.024;2023-05-25T02:36:44;70.89;37.23;90.59;;
58303;Laerm;44109;52.398;7.024;2023-05-25T02:39:12;69.02;37.37;90.70;;
58303;Laerm;44109;52.398;7.024;2023-05-25T02:41:41;65.90;37.85;79.83;;
58303;Laerm;44109;52.398;7.024;2023-05-25T02:44:09;66.37;37.93;79.57;;
58303;Laerm;44109;52.398;7.024;2023-05-25T02:46:36;65.72;37.35;79.96;;
58303;Laerm;44109;52.398;7.024;2023-05-25T02:49:04;65.04;37.45;79.34;;
58303;Laerm;44109;52.398;7.024;2023-05-25T02:51:32;60.37;37.49;81.14;;
58303;Laerm;44109;52.398;7.024;2023-05-25T02:53:59;59.47;38.27;75.60;;
58303;Laerm;44109;52.398;7.024;2023-05-25T02:56:27;55.23;36.46;71.66;;
58303;Laerm;44109;52.398;7.024;2023-05-25T02:58:56;57.11;37.07;73.53;;
58303;Laerm;44109;52.398;7.024;2023-05-25T03:01:24;53.76;37.78;70.88;;
58303;Laerm;44109;52.398;7.024;2023-05-25T03:03:56;53.38;37.01;68.34;;
58303;Laerm;44109;52.398;7.024;2023-05-25T03:06:23;52.36;37.32;64.94;;
58303;Laerm;44109;52.398;7.024;2023-05-25T03:08:51;50.13;35.93;68.57;;
58303;Laerm;44109;52.398;7.024;2023-05-25T03:11:19;52.05;36.46;75.68;;
58303;Laerm;44109;52.398;7.024;2023-05-25T03:13:47;54.64;36.78;68.95;;
58303;Laerm;44109;52.398;7.024;2023-05-25T03:16:16;54.90;37.49;70.81;;
58303;Laerm;44109;52.398;7.024;2023-05-25T03:18:44;53.98;35.99;74.43;;
58303;Laerm;44109;52.398;7.024;2023-05-25T03:21:11;52.15;36.16;68.52;;
58303;Laerm;44109;52.398;7.024;2023-05-25T03:23:39;52.62;36.73;73.95;;
58303;Laerm;44109;52.398;7.024;2023-05-25T03:26:06;53.32;36.18;68.42;;
58303;Laerm;44109;52.398;7.024;2023-05-25T03:28:34;52.07;36.03;68.36;;
58303;Laerm;44109;52.398;7.024;2023-05-25T03:31:02;50.51;35.45;62.98;;
58303;Laerm;44109;52.398;7.024;2023-05-25T03:33:31;50.96;35.19;75.83;;
58303;Laerm;44109;52.398;7.024;2023-05-25T03:35:59;53.44;35.67;67.66;;
58303;Laerm;44109;52.398;7.024;2023-05-25T03:38:26;55.13;34.88;68.85;;
58303;Laerm;44109;52.398;7.024;2023-05-25T03:40:54;49.94;34.71;65.55;;
58303;Laerm;44109;52.398;7.024;2023-05-25T03:43:21;50.78;35.22;81.49;;
58303;Laerm;44109;52.398;7.024;2023-05-25T03:45:49;48.51;35.05;63.37;;
58303;Laerm;44109;52.398;7.024;2023-05-25T03:48:17;52.66;35.03;72.18;;
58303;Laerm;44109;52.398;7.024;2023-05-25T03:50:46;50.47;34.88;69.70;;
58303;Laerm;44109;52.398;7.024;2023-05-25T03:53:13;47.63;35.00;61.20;;
58303;Laerm;44109;52.398;7.024;2023-05-25T03:55:41;50.53;35.25;76.03;;
58303;Laerm;44109;52.398;7.024;2023-05-25T03:58:09;48.60;35.50;68.96;;
58303;Laerm;44109;52.398;7.024;2023-05-25T04:00:36;52.14;35.46;74.31;;
58303;Laerm;44109;52.398;7.024;2023-05-25T04:03:04;49.19;34.94;59.53;;
58303;Laerm;44109;52.398;7.024;2023-05-25T04:05:32;50.44;35.99;74.17;;
58303;Laerm;44109;52.398;7.024;2023-05-25T04:08:01;51.96;35.02;75.30;;
58303;Laerm;44109;52.398;7.024;2023-05-25T04:10:28;48.75;34.87;69.47;;
58303;Laerm;44109;52.398;7.024;2023-05-25T04:12:56;49.89;35.62;62.77;;
58303;Laerm;44109;52.398;7.024;2023-05-25T04:15:25;51.06;36.69;65.83;;
58303;Laerm;44109;52.398;7.024;2023-05-25T04:17:52;50.45;35.99;65.27;;
58303;Laerm;44109;52.398;7.024;2023-05-25T04:20:20;49.34;36.04;66.87;;
58303;Laerm;44109;52.398;7.024;2023-05-25T04:22:48;49.42;35.86;71.01;;
58303;Laerm;44109;52.398;7.024;2023-05-25T04:25:17;50.69;35.31;72.86;;
58303;Laerm;44109;52.398;7.024;2023-05-25T04:27:46;51.90;35.38;65.34;;
58303;Laerm;44109;52.398;7.024;2023-05-25T04:30:14;49.77;35.54;60.73;;
58303;Laerm;44109;52.398;7.024;2023-05-25T04:32:41;49.34;35.86;63.55;;
58303;Laerm;44109;52.398;7.024;2023-05-25T04:35:11;53.34;35.99;72.36;;
58303;Laerm;44109;52.398;7.024;2023-05-25T04:37:40;50.75;35.88;63.45;;
58303;Laerm;44109;52.398;7.024;2023-05-25T04:40:08;49.50;35.86;68.06;;
58303;Laerm;44109;52.398;7.024;2023-05-25T04:42:40;47.22;35.94;59.62;;
58303;Laerm;44109;52.398;7.024;2023-05-25T04:45:09;47.85;35.98;74.98;;
58303;Laerm;44109;52.398;7.024;2023-05-25T04:47:37;48.62;36.89;76.43;;
58303;Laerm;44109;52.398;7.024;2023-05-25T04:50:08;48.52;36.95;63.99;;
58303;Laerm;44109;52.398;7.024;2023-05-25T04:52:36;51.78;36.55;74.72;;
58303;Laerm;44109;52.398;7.024;2023-05-25T04:55:04;48.65;36.29;72.27;;
58303;Laerm;44109;52.398;7.024;2023-05-25T04:57:32;49.51;36.38;75.71;;
58303;Laerm;44109;52.398;7.024;2023-05-25T05:00:01;51.29;36.60;70.35;;
58303;Laerm;44109;52.398;7.024;2023-05-25T05:02:29;50.61;35.98;69.73;;
58303;Laerm;44109;52.398;7.024;2023-05-25T05:04:56;49.67;35.57;65.36;;
58303;Laerm;44109;52.398;7.024;2023-05-25T05:07:24;49.07;36.62;64.66;;
58303;Laerm;44109;52.398;7.024;2023-05-25T05:09:52;51.75;36.34;71.43;;
58303;Laerm;44109;52.398;7.024;2023-05-25T05:12:19;51.80;35.84;69.15;;
58303;Laerm;44109;52.398;7.024;2023-05-25T05:14:47;49.53;36.45;64.37;;
58303;Laerm;44109;52.398;7.024;2023-05-25T05:17:16;49.23;35.20;60.09;;
58303;Laerm;44109;52.398;7.024;2023-05-25T05:19:44;50.37;39.95;59.83;;
58303;Laerm;44109;52.398;7.024;2023-05-25T05:22:12;50.45;40.30;66.26;;
58303;Laerm;44109;52.398;7.024;2023-05-25T05:24:41;51.84;39.74;75.23;;
58303;Laerm;44109;52.398;7.024;2023-05-25T05:27:08;49.70;40.10;61.22;;
58303;Laerm;44109;52.398;7.024;2023-05-25T05:29:37;51.39;35.39;76.38;;
58303;Laerm;44109;52.398;7.024;2023-05-25T05:32:05;52.90;34.27;78.32;;
58303;Laerm;44109;52.398;7.024;2023-05-25T05:34:35;51.12;35.43;71.95;;
58303;Laerm;44109;52.398;7.024;2023-05-25T05:37:03;58.16;35.96;84.87;;
58303;Laerm;44109;52.398;7.024;2023-05-25T05:39:30;51.39;35.73;68.84;;
58303;Laerm;44109;52.398;7.024;2023-05-25T05:41:58;51.71;35.68;68.12;;
58303;Laerm;44109;52.398;7.024;2023-05-25T05:44:26;50.48;35.67;67.94;;
58303;Laerm;44109;52.398;7.024;2023-05-25T05:46:54;51.31;40.67;68.13;;
58303;Laerm;44109;52.398;7.024;2023-05-25T05:49:25;50.49;40.17;63.64;;
58303;Laerm;44109;52.398;7.024;2023-05-25T05:51:54;49.78;40.08;61.13;;
58303;Laerm;44109;52.398;7.024;2023-05-25T05:54:22;51.06;40.85;64.92;;
58303;Laerm;44109;52.398;7.024;2023-05-25T05:56:50;49.93;35.58;65.63;;
58303;Laerm;44109;52.398;7.024;2023-05-25T05:59:19;49.93;35.58;69.73;;
58303;Laerm;44109;52.398;7.024;2023-05-25T06:01:47;52.95;34.99;75.50;;
58303;Laerm;44109;52.398;7.024;2023-05-25T06:04:15;52.33;35.56;66.73;;
58303;Laerm;44109;52.398;7.024;2023-05-25T06:06:42;51.87;35.46;66.92;;
58303;Laerm;44109;52.398;7.024;2023-05-25T06:09:12;51.40;35.49;67.64;;
58303;Laerm;44109;52.398;7.024;2023-05-25T06:11:39;50.67;34.46;64.38;;
58303;Laerm;44109;52.398;7.024;2023-05-25T06:14:07;51.42;35.23;63.27;;
58303;Laerm;44109;52.398;7.024;2023-05-25T06:16:34;50.32;35.63;61.41;;
58303;Laerm;44109;52.398;7.024;2023-05-25T06:19:02;49.91;35.17;66.42;;
58303;Laerm;44109;52.398;7.024;2023-05-25T06:21:30;50.67;35.52;62.74;;
58303;Laerm;44109;52.398;7.024;2023-05-25T06:23:57;50.28;36.07;70.69;;
58303;Laerm;44109;52.398;7.024;2023-05-25T06:26:26;50.59;36.11;70.56;;
58303;Laerm;44109;52.398;7.024;2023-05-25T06:28:55;51.72;35.94;67.41;;
58303;Laerm;44109;52.398;7.024;2023-05-25T06:31:23;49.83;36.04;64.50;;
58303;Laerm;44109;52.398;7.024;2023-05-25T06:33:50;49.90;35.12;64.87;;
58303;Laerm;44109;52.398;7.024;2023-05-25T06:36:18;50.49;35.34;60.28;;
58303;Laerm;44109;52.398;7.024;2023-05-25T06:38:47;50.74;35.51;64.52;;
58303;Laerm;44109;52.398;7.024;2023-05-25T06:41:14;49.95;34.54;61.14;;
58303;Laerm;44109;52.398;7.024;2023-05-25T06:43:43;51.54;35.35;67.86;;
58303;Laerm;44109;52.398;7.024;2023-05-25T06:46:11;52.31;36.34;72.45;;
58303;Laerm;44109;52.398;7.024;2023-05-25T06:48:43;52.46;37.14;68.85;;
58303;Laerm;44109;52.398;7.024;2023-05-25T06:51:11;54.95;37.22;76.38;;
58303;Laerm;44109;52.398;7.024;2023-05-25T06:53:38;53.61;37.32;69.51;;
58303;Laerm;44109;52.398;7.024;2023-05-25T06:56:06;51.92;37.09;67.35;;
58303;Laerm;44109;52.398;7.024;2023-05-25T06:58:34;51.46;36.72;73.69;;
58303;Laerm;44109;52.398;7.024;2023-05-25T07:01:03;51.98;37.52;67.44;;
58303;Laerm;44109;52.398;7.024;2023-05-25T07:03:30;50.40;36.50;61.69;;
58303;Laerm;44109;52.398;7.024;2023-05-25T07:05:58;54.10;39.40;66.79;;
58303;Laerm;44109;52.398;7.024;2023-05-25T07:08:26;53.46;38.42;66.83;;
58303;Laerm;44109;52.398;7.024;2023-05-25T07:10:54;53.61;39.48;67.35;;
58303;Laerm;44109;52.398;7.024;2023-05-25T07:13:21;52.88;38.69;64.55;;
58303;Laerm;44109;52.398;7.024;2023-05-25T07:15:49;51.14;38.22;69.36;;
58303;Laerm;44109;52.398;7.024;2023-05-25T07:18:19;51.14;38.42;68.03;;
58303;Laerm;44109;52.398;7.024;2023-05-25T07:20:47;50.54;36.00;63.42;;
58303;Laerm;44109;52.398;7.024;2023-05-25T07:23:14;50.22;35.19;65.28;;
58303;Laerm;44109;52.398;7.024;2023-05-25T07:25:42;51.56;36.65;67.02;;
58303;Laerm;44109;52.398;7.024;2023-05-25T07:28:09;51.93;35.68;68.47;;
58303;Laerm;44109;52.398;7.024;2023-05-25T07:30:38;50.59;37.00;67.41;;
58303;Laerm;44109;52.398;7.024;2023-05-25T07:33:06;51.14;35.94;64.42;;
58303;Laerm;44109;52.398;7.024;2023-05-25T07:35:35;51.15;37.51;65.55;;
58303;Laerm;44109;52.398;7.024;2023-05-25T07:38:03;50.31;38.35;68.76;;
58303;Laerm;44109;52.398;7.024;2023-05-25T07:40:31;51.97;37.33;71.53;;
58303;Laerm;44109;52.398;7.024;2023-05-25T07:42:59;51.23;38.52;73.16;;
58303;Laerm;44109;52.398;7.024;2023-05-25T07:45:26;52.31;39.24;68.08;;
58303;Laerm;44109;52.398;7.024;2023-05-25T07:47:54;53.83;39.16;67.14;;
58303;Laerm;44109;52.398;7.024;2023-05-25T07:50:21;51.43;38.06;71.06;;
58303;Laerm;44109;52.398;7.024;2023-05-25T07:52:51;53.56;38.62;65.58;;
58303;Laerm;44109;52.398;7.024;2023-05-25T07:55:19;52.28;38.46;67.74;;
58303;Laerm;44109;52.398;7.024;2023-05-25T07:57:46;51.31;36.44;71.30;;
58303;Laerm;44109;52.398;7.024;2023-05-25T08:00:15;52.12;36.45;75.71;;
58303;Laerm;44109;52.398;7.024;2023-05-25T08:02:42;51.42;37.41;69.30;;
58303;Laerm;44109;52.398;7.024;2023-05-25T08:05:10;53.02;38.02;68.69;;
58303;Laerm;44109;52.398;7.024;2023-05-25T08:07:39;56.18;38.52;83.07;;
58303;Laerm;44109;52.398;7.024;2023-05-25T08:10:09;52.55;40.32;63.76;;
58303;Laerm;44109;52.398;7.024;2023-05-25T08:12:37;52.72;39.32;64.16;;
58303;Laerm;44109;52.398;7.024;2023-05-25T08:15:05;51.77;39.18;64.10;;
58303;Laerm;44109;52.398;7.024;2023-05-25T08:17:33;53.31;40.27;69.29;;
58303;Laerm;44109;52.398;7.024;2023-05-25T08:20:01;51.09;37.86;63.94;;
58303;Laerm;44109;52.398;7.024;2023-05-25T08:22:30;53.98;40.69;72.29;;
58303;Laerm;44109;52.398;7.024;2023-05-25T08:24:58;50.36;38.09;67.68;;
58303;Laerm;44109;52.398;7.024;2023-05-25T08:27:27;50.60;38.54;68.71;;
58303;Laerm;44109;52.398;7.024;2023-05-25T08:29:54;50.97;38.51;64.34;;
58303;Laerm;44109;52.398;7.024;2023-05-25T08:32:22;49.69;37.96;60.34;;
58303;Laerm;44109;52.398;7.024;2023-05-25T08:34:50;51.60;38.92;70.34;;
58303;Laerm;44109;52.398;7.024;2023-05-25T08:37:17;50.64;40.48;65.81;;
58303;Laerm;44109;52.398;7.024;2023-05-25T08:39:47;50.94;40.51;75.93;;
58303;Laerm;44109;52.398;7.024;2023-05-25T08:42:15;50.78;38.97;72.87;;
58303;Laerm;44109;52.398;7.024;2023-05-25T08:44:44;50.50;38.44;64.44;;
58303;Laerm;44109;52.398;7.024;2023-05-25T08:47:13;50.81;37.58;61.23;;
58303;Laerm;44109;52.398;7.024;2023-05-25T08:49:44;51.16;38.07;61.24;;
58303;Laerm;44109;52.398;7.024;2023-05-25T08:52:14;50.74;37.03;64.38;;
58303;Laerm;44109;52.398;7.024;2023-05-25T08:54:43;52.81;38.66;66.54;;
58303;Laerm;44109;52.398;7.024;2023-05-25T08:57:17;52.04;39.27;69.40;;
58303;Laerm;44109;52.398;7.024;2023-05-25T08:59:56;52.55;38.59;70.41;;
58303;Laerm;44109;52.398;7.024;2023-05-25T09:02:36;51.58;38.48;63.82;;
58303;Laerm;44109;52.398;7.024;2023-05-25T09:05:07;52.10;39.01;70.02;;
58303;Laerm;44109;52.398;7.024;2023-05-25T09:07:35;50.65;38.34;65.78;;
58303;Laerm;44109;52.398;7.024;2023-05-25T09:10:03;51.45;39.81;63.36;;
58303;Laerm;44109;52.398;7.024;2023-05-25T09:12:31;50.58;38.86;63.22;;
58303;Laerm;44109;52.398;7.024;2023-05-25T09:15:01;52.04;39.70;63.54;;
58303;Laerm;44109;52.398;7.024;2023-05-25T09:17:30;51.83;41.80;66.95;;
58303;Laerm;44109;52.398;7.024;2023-05-25T09:19:58;51.94;39.20;65.02;;
58303;Laerm;44109;52.398;7.024;2023-05-25T09:22:26;50.79;39.00;62.13;;
58303;Laerm;44109;52.398;7.024;2023-05-25T09:24:54;51.66;40.07;71.36;;
58303;Laerm;44109;52.398;7.024;2023-05-25T09:27:23;49.80;37.80;65.83;;
58303;Laerm;44109;52.398;7.024;2023-05-25T09:29:51;51.82;35.99;69.03;;
58303;Laerm;44109;52.398;7.024;2023-05-25T09:32:20;52.18;36.58;67.53;;
58303;Laerm;44109;52.398;7.024;2023-05-25T09:34:47;50.55;36.41;64.38;;
58303;Laerm;44109;52.398;7.024;2023-05-25T09:37:16;50.44;36.99;61.90;;
58303;Laerm;44109;52.398;7.024;2023-05-25T09:39:44;49.69;37.57;64.38;;
58303;Laerm;44109;52.398;7.024;2023-05-25T09:42:12;49.69;37.28;62.90;;
58303;Laerm;44109;52.398;7.024;2023-05-25T09:44:40;50.65;36.49;69.42;;
58303;Laerm;44109;52.398;7.024;2023-05-25T09:47:09;51.37;37.22;66.51;;
58303;Laerm;44109;52.398;7.024;2023-05-25T09:49:40;51.66;36.98;76.98;;
58303;Laerm;44109;52.398;7.024;2023-05-25T09:52:11;50.79;38.79;66.35;;
58303;Laerm;44109;52.398;7.024;2023-05-25T09:54:42;51.37;38.11;66.07;;
58303;Laerm;44109;52.398;7.024;2023-05-25T09:57:10;51.40;36.60;66.03;;
58303;Laerm;44109;52.398;7.024;2023-05-25T09:59:38;50.25;36.63;69.05;;
58303;Laerm;44109;52.398;7.024;2023-05-25T10:02:06;50.90;36.23;66.23;;
58303;Laerm;44109;52.398;7.024;2023-05-25T10:04:34;52.28;37.37;68.53;;
58303;Laerm;44109;52.398;7.024;2023-05-25T10:07:04;53.70;37.07;67.65;;
58303;Laerm;44109;52.398;7.024;2023-05-25T10:09:38;50.68;37.91;65.94;;
58303;Laerm;44109;52.398;7.024;2023-05-25T10:12:07;52.26;38.38;64.47;;
58303;Laerm;44109;52.398;7.024;2023-05-25T10:14:37;52.62;39.35;78.10;;
58303;Laerm;44109;52.398;7.024;2023-05-25T10:17:06;52.34;38.04;66.92;;
58303;Laerm;44109;52.398;7.024;2023-05-25T10:19:56;52.87;37.52;67.29;;
58303;Laerm;44109;52.398;7.024;2023-05-25T10:22:31;52.74;38.21;68.81;;
58303;Laerm;44109;52.398;7.024;2023-05-25T10:25:09;54.35;38.99;67.34;;
58303;Laerm;44109;52.398;7.024;2023-05-25T10:27:40;51.45;36.85;68.63;;
58303;Laerm;44109;52.398;7.024;2023-05-25T10:30:09;51.26;37.27;70.81;;
58303;Laerm;44109;52.398;7.024;2023-05-25T10:32:38;53.45;38.28;66.60;;
58303;Laerm;44109;52.398;7.024;2023-05-25T10:35:07;53.00;41.39;64.69;;
58303;Laerm;44109;52.398;7.024;2023-05-25T10:37:39;54.14;40.35;76.67;;
58303;Laerm;44109;52.398;7.024;2023-05-25T10:40:08;55.10;36.47;73.10;;
58303;Laerm;44109;52.398;7.024;2023-05-25T10:42:36;53.73;39.02;71.65;;
58303;Laerm;44109;52.398;7.024;2023-05-25T10:45:07;53.43;38.18;72.84;;
58303;Laerm;44109;52.398;7.024;2023-05-25T10:47:38;50.51;37.23;70.01;;
58303;Laerm;44109;52.398;7.024;2023-05-25T10:50:18;51.76;37.96;69.28;;
58303;Laerm;44109;52.398;7.024;2023-05-25T10:52:57;51.25;37.87;65.55;;
58303;Laerm;44109;52.398;7.024;2023-05-25T10:55:27;51.51;38.61;72.11;;
58303;Laerm;44109;52.398;7.024;2023-05-25T10:58:07;50.52;38.25;62.77;;
58303;Laerm;44109;52.398;7.024;2023-05-25T11:00:35;49.49;37.84;58.76;;
58303;Laerm;44109;52.398;7.024;2023-05-25T11:03:03;51.41;37.65;68.65;;
58303;Laerm;44109;52.398;7.024;2023-05-25T11:05:35;51.40;37.22;75.39;;
58303;Laerm;44109;52.398;7.024;2023-05-25T11:08:06;51.98;37.45;70.72;;
58303;Laerm;44109;52.398;7.024;2023-05-25T11:10:51;52.29;37.58;70.31;;
58303;Laerm;44109;52.398;7.024;2023-05-25T11:13:37;52.06;38.12;69.13;;
58303;Laerm;44109;52.398;7.024;2023-05-25T11:16:18;52.48;38.47;66.56;;
58303;Laerm;44109;52.398;7.024;2023-05-25T11:18:53;50.89;37.21;64.50;;
58303;Laerm;44109;52.398;7.024;2023-05-25T11:21:42;50.97;39.83;69.55;;
58303;Laerm;44109;52.398;7.024;2023-05-25T11:24:14;53.86;38.79;75.39;;
58303;Laerm;44109;52.398;7.024;2023-05-25T11:26:58;51.16;36.94;79.73;;
58303;Laerm;44109;52.398;7.024;2023-05-25T11:29:30;52.52;37.90;79.30;;
58303;Laerm;44109;52.398;7.024;2023-05-25T11:31:58;55.93;36.05;74.07;;
58303;Laerm;44109;52.398;7.024;2023-05-25T11:34:26;59.18;37.76;85.33;;
58303;Laerm;44109;52.398;7.024;2023-05-25T11:36:56;52.57;36.45;72.38;;
58303;Laerm;44109;52.398;7.024;2023-05-25T11:39:29;50.41;38.86;66.54;;
58303;Laerm;44109;52.398;7.024;2023-05-25T11:42:02;50.28;38.74;62.75;;
58303;Laerm;44109;52.398;7.024;2023-05-25T11:44:32;51.42;38.31;64.89;;
58303;Laerm;44109;52.398;7.024;2023-05-25T11:47:05;53.23;37.99;71.86;;
58303;Laerm;44109;52.398;7.024;2023-05-25T11:49:37;52.82;36.04;72.97;;
58303;Laerm;44109;52.398;7.024;2023-05-25T11:52:05;61.11;36.12;80.74;;
58303;Laerm;44109;52.398;7.024;2023-05-25T11:54:35;63.12;37.02;82.78;;
58303;Laerm;44109;52.398;7.024;2023-05-25T11:57:03;51.51;36.99;63.43;;
58303;Laerm;44109;52.398;7.024;2023-05-25T11:59:31;51.47;39.15;64.00;;
58303;Laerm;44109;52.398;7.024;2023-05-25T12:02:01;50.55;37.58;63.06;;
58303;Laerm;44109;52.398;7.024;2023-05-25T12:04:30;51.72;38.24;63.66;;
58303;Laerm;44109;52.398;7.024;2023-05-25T12:07:02;51.83;38.82;79.01;;
58303;Laerm;44109;52.398;7.024;2023-05-25T12:09:31;50.19;37.76;63.42;;
58303;Laerm;44109;52.398;7.024;2023-05-25T12:12:02;53.02;37.79;71.81;;
58303;Laerm;44109;52.398;7.024;2023-05-25T12:14:31;50.34;35.74;63.80;;
58303;Laerm;44109;52.398;7.024;2023-05-25T12:17:01;50.68;37.59;64.94;;
58303;Laerm;44109;52.398;7.024;2023-05-25T12:19:29;51.05;38.56;69.15;;
58303;Laerm;44109;52.398;7.024;2023-05-25T12:21:57;50.72;36.25;64.79;;
58303;Laerm;44109;52.398;7.024;2023-05-25T12:24:24;50.09;37.74;66.42;;
58303;Laerm;44109;52.398;7.024;2023-05-25T12:26:52;50.42;38.27;63.68;;
58303;Laerm;44109;52.398;7.024;2023-05-25T12:29:24;51.16;37.32;74.20;;
58303;Laerm;44109;52.398;7.024;2023-05-25T12:31:52;49.56;36.45;58.82;;
58303;Laerm;44109;52.398;7.024;2023-05-25T12:34:20;50.70;38.70;61.48;;
58303;Laerm;44109;52.398;7.024;2023-05-25T12:36:49;49.44;36.68;60.86;;
58303;Laerm;44109;52.398;7.024;2023-05-25T12:39:32;49.68;36.89;63.15;;
58303;Laerm;44109;52.398;7.024;2023-05-25T12:42:10;49.95;39.05;60.36;;
58303;Laerm;44109;52.398;7.024;2023-05-25T12:44:41;50.90;35.42;64.25;;
58303;Laerm;44109;52.398;7.024;2023-05-25T12:47:11;50.17;36.25;62.36;;
58303;Laerm;44109;52.398;7.024;2023-05-25T12:49:42;52.20;38.01;68.36;;
58303;Laerm;44109;52.398;7.024;2023-05-25T12:52:30;49.42;38.17;65.35;;
58303;Laerm;44109;52.398;7.024;2023-05-25T12:55:17;49.84;36.51;61.22;;
58303;Laerm;44109;52.398;7.024;2023-05-25T12:57:45;52.67;37.34;68.54;;
58303;Laerm;44109;52.398;7.024;2023-05-25T13:00:20;52.23;39.14;68.91;;
58303;Laerm;44109;52.398;7.024;2023-05-25T13:02:49;64.00;36.96;90.23;;
58303;Laerm;44109;52.398;7.024;2023-05-25T13:05:21;72.55;39.09;91.63;;
58303;Laerm;44109;52.398;7.024;2023-05-25T13:07:50;64.49;40.47;89.36;;
58303;Laerm;44109;52.398;7.024;2023-05-25T13:10:18;51.69;37.20;64.60;;
58303;Laerm;44109;52.398;7.024;2023-05-25T13:12:47;50.81;36.09;64.59;;
58303;Laerm;44109;52.398;7.024;2023-05-25T13:15:18;51.38;37.16;67.53;;
58303;Laerm;44109;52.398;7.024;2023-05-25T13:17:47;50.84;39.37;67.84;;
58303;Laerm;44109;52.398;7.024;2023-05-25T13:20:17;49.99;37.68;59.79;;
58303;Laerm;44109;52.398;7.024;2023-05-25T13:22:48;50.80;37.46;66.94;;
58303;Laerm;44109;52.398;7.024;2023-05-25T13:25:16;51.33;37.09;63.10;;
58303;Laerm;44109;52.398;7.024;2023-05-25T13:27:47;51.03;38.39;62.98;;
58303;Laerm;44109;52.398;7.024;2023-05-25T13:30:15;50.03;36.70;61.67;;
58303;Laerm;44109;52.398;7.024;2023-05-25T13:32:44;50.71;35.36;66.98;;
58303;Laerm;44109;52.398;7.024;2023-05-25T13:35:12;50.26;36.24;68.79;;
58303;Laerm;44109;52.398;7.024;2023-05-25T13:37:44;57.28;36.82;79.53;;
58303;Laerm;44109;52.398;7.024;2023-05-25T13:40:12;50.47;36.82;68.48;;
58303;Laerm;44109;52.398;7.024;2023-05-25T13:42:40;54.90;43.13;71.94;;
58303;Laerm;44109;52.398;7.024;2023-05-25T13:45:09;53.13;38.00;70.26;;
58303;Laerm;44109;52.398;7.024;2023-05-25T13:47:37;54.61;37.91;65.89;;
58303;Laerm;44109;52.398;7.024;2023-05-25T15:34:12;51.20;38.12;69.05;;
58303;Laerm;44109;52.398;7.024;2023-05-25T15:36:41;52.19;39.02;68.49;;
58303;Laerm;44109;52.398;7.024;2023-05-25T15:39:08;50.36;37.57;61.59;;
58303;Laerm;44109;52.398;7.024;2023-05-25T15:41:36;52.27;39.21;68.03;;